createdAt,value
2018-05-19T00:02:17.506Z,13.90
2018-05-19T00:04:43.527Z,13.93
2018-05-19T00:07:09.288Z,13.92
2018-05-19T00:09:35.067Z,13.88
2018-05-19T00:12:07.944Z,13.88
2018-05-19T00:14:34.604Z,13.84
2018-05-19T00:17:00.372Z,13.79
2018-05-19T00:19:26.126Z,13.80
2018-05-19T00:21:51.899Z,13.81
2018-05-19T00:24:17.653Z,13.83
2018-05-19T00:26:43.455Z,13.82
2018-05-19T00:29:09.199Z,13.83
2018-05-19T00:31:34.972Z,13.85
2018-05-19T00:34:00.726Z,13.84
2018-05-19T00:36:26.607Z,13.83
2018-05-19T00:38:52.356Z,13.85
2018-05-19T00:41:18.132Z,13.87
2018-05-19T00:43:43.935Z,13.88
2018-05-19T00:46:09.711Z,13.89
2018-05-19T00:48:35.451Z,13.87
2018-05-19T00:51:01.220Z,13.86
2018-05-19T00:53:27.303Z,13.87
2018-05-19T00:55:53.112Z,13.89
2018-05-19T00:58:18.847Z,13.89
2018-05-19T01:00:44.626Z,13.90
2018-05-19T01:03:10.399Z,13.86
2018-05-19T01:05:36.153Z,13.78
2018-05-19T01:08:01.916Z,13.73
2018-05-19T01:10:27.707Z,13.71
2018-05-19T01:12:53.484Z,13.74
2018-05-19T01:15:19.240Z,13.77
2018-05-19T01:17:45.007Z,13.78
2018-05-19T01:20:10.752Z,13.80
2018-05-19T01:22:36.503Z,13.82
2018-05-19T01:25:02.839Z,13.84
2018-05-19T01:27:28.620Z,13.85
2018-05-19T01:29:54.367Z,13.86
2018-05-19T01:32:20.147Z,13.88
2018-05-19T01:34:45.944Z,13.89
2018-05-19T01:37:11.751Z,13.91
2018-05-19T01:39:37.558Z,13.93
2018-05-19T01:42:03.362Z,13.91
2018-05-19T01:44:29.139Z,13.90
2018-05-19T01:46:54.899Z,13.89
2018-05-19T01:49:20.719Z,13.80
2018-05-19T01:51:46.475Z,13.76
2018-05-19T01:54:12.229Z,13.74
2018-05-19T01:56:38.040Z,13.69
2018-05-19T01:59:03.925Z,13.69
2018-05-19T02:01:29.707Z,13.70
2018-05-19T02:03:55.780Z,13.74
2018-05-19T02:06:21.553Z,13.76
2018-05-19T02:08:47.327Z,13.79
2018-05-19T02:11:13.087Z,13.82
2018-05-19T02:13:38.959Z,13.85
2018-05-19T02:16:04.767Z,13.87
2018-05-19T02:18:30.572Z,13.86
2018-05-19T02:20:56.315Z,13.86
2018-05-19T02:23:22.099Z,13.84
2018-05-19T02:25:47.843Z,13.81
2018-05-19T02:28:13.718Z,13.81
2018-05-19T02:30:39.483Z,13.84
2018-05-19T02:33:05.253Z,13.83
2018-05-19T02:35:31.000Z,13.83
2018-05-19T02:37:56.772Z,13.79
2018-05-19T02:40:22.535Z,13.76
2018-05-19T02:42:48.371Z,13.76
2018-05-19T02:45:14.136Z,13.76
2018-05-19T02:47:39.908Z,13.75
2018-05-19T02:50:05.681Z,13.75
2018-05-19T02:52:31.428Z,13.73
2018-05-19T02:54:57.195Z,13.72
2018-05-19T02:57:22.939Z,13.69
2018-05-19T02:59:48.796Z,13.69
2018-05-19T03:02:14.563Z,13.70
2018-05-19T03:04:40.312Z,13.65
2018-05-19T03:07:06.092Z,13.61
2018-05-19T03:09:31.840Z,13.61
2018-05-19T03:11:57.728Z,13.61
2018-05-19T03:14:23.527Z,13.62
2018-05-19T03:16:49.294Z,13.59
2018-05-19T03:19:15.131Z,13.60
2018-05-19T03:21:40.887Z,13.62
2018-05-19T03:24:06.662Z,13.64
2018-05-19T03:26:32.420Z,13.66
2018-05-19T03:28:58.239Z,13.67
2018-05-19T03:31:24.153Z,13.64
2018-05-19T03:33:49.927Z,13.63
2018-05-19T03:36:15.779Z,13.63
2018-05-19T03:38:41.741Z,13.66
2018-05-19T03:41:07.503Z,13.68
2018-05-19T03:43:33.367Z,13.70
2018-05-19T03:45:59.132Z,13.70
2018-05-19T03:48:24.941Z,13.73
2018-05-19T03:50:50.695Z,13.76
2018-05-19T03:53:16.538Z,13.77
2018-05-19T03:55:42.355Z,13.78
2018-05-19T03:58:20.507Z,13.81
2018-05-19T04:00:58.732Z,13.83
2018-05-19T04:03:24.524Z,13.80
2018-05-19T04:05:50.327Z,13.75
2018-05-19T04:08:16.170Z,13.72
2018-05-19T04:10:42.030Z,13.71
2018-05-19T04:13:07.784Z,13.73
2018-05-19T04:15:33.802Z,13.77
2018-05-19T04:17:59.559Z,13.79
2018-05-19T04:20:25.325Z,13.72
2018-05-19T04:22:51.084Z,13.76
2018-05-19T04:25:16.880Z,13.77
2018-05-19T04:27:42.639Z,13.77
2018-05-19T04:30:08.416Z,13.78
2018-05-19T04:32:34.161Z,13.77
2018-05-19T04:34:59.967Z,13.74
2018-05-19T04:37:25.696Z,13.73
2018-05-19T04:39:51.491Z,13.76
2018-05-19T04:42:17.308Z,13.81
2018-05-19T04:44:43.061Z,13.86
2018-05-19T04:47:08.831Z,13.93
2018-05-19T04:49:34.600Z,13.99
2018-05-19T04:52:00.368Z,14.04
2018-05-19T04:54:26.132Z,14.12
2018-05-19T04:56:51.928Z,14.17
2018-05-19T04:59:17.668Z,14.25
2018-05-19T05:01:43.416Z,14.32
2018-05-19T05:04:09.223Z,14.38
2018-05-19T05:06:35.136Z,14.43
2018-05-19T05:09:00.895Z,14.45
2018-05-19T05:11:26.635Z,14.40
2018-05-19T05:13:52.424Z,14.42
2018-05-19T05:16:18.177Z,14.44
2018-05-19T05:18:44.056Z,14.46
2018-05-19T05:21:09.821Z,14.45
2018-05-19T05:23:35.679Z,14.48
2018-05-19T05:26:01.435Z,14.52
2018-05-19T05:28:27.218Z,14.50
2018-05-19T05:30:53.007Z,14.53
2018-05-19T05:33:18.744Z,14.55
2018-05-19T05:35:44.545Z,14.56
2018-05-19T05:38:10.316Z,14.58
2018-05-19T05:40:36.083Z,14.62
2018-05-19T05:43:02.103Z,14.72
2018-05-19T05:45:27.892Z,14.84
2018-05-19T05:47:53.670Z,14.98
2018-05-19T05:50:19.446Z,15.09
2018-05-19T05:52:45.275Z,15.09
2018-05-19T05:55:11.027Z,15.10
2018-05-19T05:57:36.820Z,15.10
2018-05-19T06:00:02.627Z,15.04
2018-05-19T06:02:28.378Z,15.00
2018-05-19T06:04:54.188Z,14.93
2018-05-19T06:07:19.980Z,14.85
2018-05-19T06:09:45.719Z,14.81
2018-05-19T06:12:11.860Z,14.82
2018-05-19T06:14:37.824Z,14.96
2018-05-19T06:17:03.575Z,15.07
2018-05-19T06:19:29.380Z,15.14
2018-05-19T06:21:55.124Z,15.22
2018-05-19T06:24:20.898Z,15.28
2018-05-19T06:26:46.744Z,15.28
2018-05-19T06:29:12.500Z,15.33
2018-05-19T06:31:38.331Z,15.23
2018-05-19T06:34:04.092Z,15.12
2018-05-19T06:36:30.171Z,15.09
2018-05-19T06:38:55.971Z,15.10
2018-05-19T06:41:21.756Z,15.05
2018-05-19T06:43:47.499Z,15.12
2018-05-19T06:46:13.298Z,15.20
2018-05-19T06:48:39.122Z,15.33
2018-05-19T06:51:04.915Z,15.47
2018-05-19T06:53:30.671Z,15.56
2018-05-19T06:55:56.451Z,15.56
2018-05-19T06:58:22.197Z,15.59
2018-05-19T07:00:48.087Z,15.68
2018-05-19T07:03:14.003Z,15.76
2018-05-19T07:05:39.788Z,15.82
2018-05-19T07:08:05.639Z,15.79
2018-05-19T07:10:31.339Z,15.80
2018-05-19T07:12:57.126Z,15.84
2018-05-19T07:15:22.916Z,15.78
2018-05-19T07:17:48.676Z,15.83
2018-05-19T07:20:14.439Z,15.94
2018-05-19T07:22:40.200Z,16.09
2018-05-19T07:25:05.968Z,16.26
2018-05-19T07:27:31.773Z,16.50
2018-05-19T07:29:57.498Z,16.54
2018-05-19T07:32:23.279Z,16.52
2018-05-19T07:34:49.061Z,16.49
2018-05-19T07:37:14.867Z,16.47
2018-05-19T07:39:40.623Z,16.45
2018-05-19T07:42:06.384Z,16.51
2018-05-19T07:44:32.159Z,16.55
2018-05-19T07:46:57.988Z,16.57
2018-05-19T07:49:23.778Z,16.70
2018-05-19T07:51:49.586Z,16.79
2018-05-19T07:54:15.367Z,16.85
2018-05-19T07:56:41.211Z,16.81
2018-05-19T07:59:06.960Z,16.85
2018-05-19T08:01:33.007Z,16.84
2018-05-19T08:03:58.771Z,16.86
2018-05-19T08:06:24.587Z,16.92
2018-05-19T08:08:50.336Z,16.94
2018-05-19T08:11:16.146Z,17.09
2018-05-19T08:13:41.976Z,17.18
2018-05-19T08:16:07.743Z,17.25
2018-05-19T08:18:33.496Z,17.35
2018-05-19T08:20:59.274Z,17.37
2018-05-19T08:23:25.043Z,17.45
2018-05-19T08:25:50.796Z,17.51
2018-05-19T08:28:16.583Z,17.47
2018-05-19T08:30:42.367Z,17.38
2018-05-19T08:33:08.182Z,17.54
2018-05-19T08:35:33.936Z,17.76
2018-05-19T08:37:59.706Z,17.89
2018-05-19T08:40:25.604Z,18.07
2018-05-19T08:42:51.360Z,17.98
2018-05-19T08:45:17.123Z,18.05
2018-05-19T08:47:42.924Z,18.01
2018-05-19T08:50:08.859Z,17.95
2018-05-19T08:52:34.675Z,18.16
2018-05-19T08:55:00.463Z,18.44
2018-05-19T08:57:26.213Z,18.61
2018-05-19T08:59:51.996Z,18.62
2018-05-19T09:02:17.844Z,18.41
2018-05-19T09:04:43.620Z,18.41
2018-05-19T09:07:09.468Z,18.59
2018-05-19T09:09:35.195Z,18.82
2018-05-19T09:12:00.939Z,18.91
2018-05-19T09:14:26.715Z,18.96
2018-05-19T09:16:52.476Z,19.02
2018-05-19T09:19:18.227Z,19.14
2018-05-19T09:21:44.102Z,19.20
2018-05-19T09:24:09.903Z,19.24
2018-05-19T09:26:35.682Z,19.40
2018-05-19T09:29:01.457Z,19.34
2018-05-19T09:31:27.199Z,19.16
2018-05-19T09:33:52.985Z,18.75
2018-05-19T09:36:18.742Z,18.47
2018-05-19T09:38:44.575Z,18.43
2018-05-19T09:41:10.342Z,18.51
2018-05-19T09:43:36.284Z,18.46
2018-05-19T09:46:02.103Z,18.44
2018-05-19T09:48:27.852Z,18.34
2018-05-19T09:50:53.647Z,18.31
2018-05-19T09:53:19.405Z,18.47
2018-05-19T09:55:45.175Z,18.71
2018-05-19T09:58:11.078Z,18.88
2018-05-19T10:00:36.894Z,18.95
2018-05-19T10:03:02.814Z,18.97
2018-05-19T10:05:28.999Z,19.00
2018-05-19T10:07:54.781Z,19.02
2018-05-19T10:10:20.584Z,19.20
2018-05-19T10:12:46.368Z,19.26
2018-05-19T10:15:12.111Z,19.43
2018-05-19T10:17:37.927Z,19.57
2018-05-19T10:20:03.699Z,19.73
2018-05-19T10:22:29.481Z,19.89
2018-05-19T10:24:55.236Z,19.64
2018-05-19T10:27:21.004Z,19.66
2018-05-19T10:29:46.813Z,19.79
2018-05-19T10:32:12.573Z,19.80
2018-05-19T10:34:38.370Z,19.95
2018-05-19T10:37:04.116Z,20.14
2018-05-19T10:39:29.903Z,20.22
2018-05-19T10:41:55.759Z,20.27
2018-05-19T10:44:21.506Z,20.15
2018-05-19T10:46:47.255Z,20.24
2018-05-19T10:49:13.034Z,20.37
2018-05-19T10:51:38.855Z,20.42
2018-05-19T10:54:04.638Z,20.40
2018-05-19T10:56:30.404Z,20.28
2018-05-19T10:58:56.450Z,20.38
2018-05-19T11:01:22.228Z,20.48
2018-05-19T11:03:48.007Z,20.55
2018-05-19T11:06:13.784Z,20.64
2018-05-19T11:08:39.560Z,20.60
2018-05-19T11:11:05.584Z,20.48
2018-05-19T11:13:31.366Z,20.37
2018-05-19T11:15:57.163Z,20.44
2018-05-19T11:18:22.919Z,20.55
2018-05-19T11:20:48.683Z,20.49
2018-05-19T11:23:14.490Z,20.45
2018-05-19T11:25:40.314Z,20.32
2018-05-19T11:28:06.097Z,20.36
2018-05-19T11:30:31.848Z,20.44
2018-05-19T11:32:57.605Z,20.52
2018-05-19T11:35:23.363Z,20.62
2018-05-19T11:37:49.149Z,20.79
2018-05-19T11:40:14.923Z,20.97
2018-05-19T11:42:40.784Z,20.94
2018-05-19T11:45:06.560Z,21.05
2018-05-19T11:47:32.371Z,21.06
2018-05-19T11:49:58.147Z,21.15
2018-05-19T11:52:23.914Z,21.38
2018-05-19T11:54:49.691Z,21.56
2018-05-19T11:57:15.431Z,21.61
2018-05-19T11:59:41.187Z,21.47
2018-05-19T12:02:06.956Z,21.27
2018-05-19T12:04:32.918Z,21.35
2018-05-19T12:06:58.667Z,21.41
2018-05-19T12:09:24.427Z,21.37
2018-05-19T12:11:50.282Z,21.41
2018-05-19T12:14:15.999Z,21.57
2018-05-19T12:16:41.758Z,21.71
2018-05-19T12:19:07.663Z,21.65
2018-05-19T12:21:33.415Z,21.73
2018-05-19T12:23:59.204Z,21.78
2018-05-19T12:26:24.957Z,21.71
2018-05-19T12:28:50.744Z,21.56
2018-05-19T12:31:16.495Z,21.39
2018-05-19T12:33:42.286Z,21.26
2018-05-19T12:36:08.194Z,21.27
2018-05-19T12:38:33.963Z,21.21
2018-05-19T12:40:59.735Z,21.22
2018-05-19T12:43:25.546Z,21.17
2018-05-19T12:45:51.307Z,21.31
2018-05-19T12:48:17.151Z,21.47
2018-05-19T12:50:42.960Z,21.25
2018-05-19T12:53:08.732Z,21.45
2018-05-19T12:55:34.504Z,21.63
2018-05-19T12:58:00.253Z,21.69
2018-05-19T13:00:26.015Z,21.73
2018-05-19T13:02:51.779Z,21.82
2018-05-19T13:05:17.557Z,21.75
2018-05-19T13:07:43.328Z,21.75
2018-05-19T13:10:09.123Z,21.70
2018-05-19T13:12:34.917Z,21.60
2018-05-19T13:15:00.687Z,21.34
2018-05-19T13:17:26.480Z,21.18
2018-05-19T13:19:52.248Z,21.22
2018-05-19T13:22:18.104Z,21.31
2018-05-19T13:24:50.863Z,21.23
2018-05-19T13:27:16.627Z,21.27
2018-05-19T13:29:42.666Z,21.22
2018-05-19T13:32:08.412Z,21.21
2018-05-19T13:34:41.174Z,21.17
2018-05-19T13:37:07.086Z,21.01
2018-05-19T13:39:33.063Z,20.91
2018-05-19T13:41:58.832Z,20.72
2018-05-19T13:44:24.643Z,20.65
2018-05-19T13:46:50.545Z,20.54
2018-05-19T13:49:16.224Z,20.52
2018-05-19T13:51:42.003Z,20.61
2018-05-19T13:54:07.906Z,20.71
2018-05-19T13:56:33.683Z,20.80
2018-05-19T13:58:59.459Z,20.88
2018-05-19T14:01:25.235Z,20.96
2018-05-19T14:03:50.992Z,21.04
2018-05-19T14:06:16.997Z,21.05
2018-05-19T14:08:42.848Z,21.18
2018-05-19T14:11:08.800Z,21.28
2018-05-19T14:13:34.583Z,21.35
2018-05-19T14:16:00.604Z,21.44
2018-05-19T14:18:26.347Z,21.17
2018-05-19T14:20:52.115Z,21.18
2018-05-19T14:23:17.864Z,21.14
2018-05-19T14:25:43.637Z,21.26
2018-05-19T14:28:09.387Z,21.37
2018-05-19T14:30:35.170Z,21.54
2018-05-19T14:33:00.983Z,21.72
2018-05-19T14:35:26.751Z,21.96
2018-05-19T14:37:52.523Z,22.19
2018-05-19T14:40:18.363Z,22.34
2018-05-19T14:42:44.123Z,22.56
2018-05-19T14:47:53.159Z,22.71
2018-05-19T14:50:18.927Z,22.79
2018-05-19T14:52:44.762Z,22.84
2018-05-19T14:55:10.531Z,22.72
2018-05-19T14:57:36.328Z,22.72
2018-05-19T15:00:02.140Z,22.71
2018-05-19T15:02:27.903Z,22.72
2018-05-19T15:04:53.647Z,22.80
2018-05-19T15:07:19.506Z,22.85
2018-05-19T15:09:45.303Z,22.81
2018-05-19T15:12:11.060Z,22.69
2018-05-19T15:14:36.822Z,22.64
2018-05-19T15:17:02.580Z,22.56
2018-05-19T15:19:28.314Z,22.50
2018-05-19T15:21:54.085Z,22.43
2018-05-19T15:24:19.847Z,22.28
2018-05-19T15:26:45.619Z,22.20
2018-05-19T15:29:11.462Z,22.11
2018-05-19T15:31:37.315Z,22.04
2018-05-19T15:34:03.118Z,22.08
2018-05-19T15:36:28.907Z,22.14
2018-05-19T15:38:54.659Z,22.14
2018-05-19T15:41:20.443Z,22.22
2018-05-19T15:43:46.220Z,22.33
2018-05-19T15:46:12.016Z,22.41
2018-05-19T15:48:37.799Z,22.48
2018-05-19T15:51:03.602Z,22.52
2018-05-19T15:53:29.352Z,22.58
2018-05-19T15:55:55.148Z,22.66
2018-05-19T15:58:20.899Z,22.74
2018-05-19T16:00:46.770Z,22.72
2018-05-19T16:03:12.608Z,22.69
2018-05-19T16:05:38.327Z,22.63
2018-05-19T16:08:04.072Z,22.50
2018-05-19T16:10:29.856Z,22.34
2018-05-19T16:12:55.631Z,22.39
2018-05-19T16:15:21.380Z,22.26
2018-05-19T16:17:47.160Z,22.05
2018-05-19T16:20:12.910Z,22.07
2018-05-19T16:22:38.691Z,22.06
2018-05-19T16:25:04.500Z,22.08
2018-05-19T16:27:30.293Z,22.17
2018-05-19T16:29:56.043Z,22.26
2018-05-19T16:32:21.827Z,22.16
2018-05-19T16:34:47.704Z,21.98
2018-05-19T16:37:13.467Z,21.91
2018-05-19T16:39:39.210Z,21.89
2018-05-19T16:42:04.983Z,21.87
2018-05-19T16:44:30.741Z,21.78
2018-05-19T16:46:56.523Z,21.82
2018-05-19T16:49:22.290Z,21.73
2018-05-19T16:51:48.082Z,21.51
2018-05-19T16:54:13.827Z,21.33
2018-05-19T16:56:39.584Z,21.32
2018-05-19T16:59:05.359Z,21.36
2018-05-19T17:01:31.331Z,21.38
2018-05-19T17:03:57.104Z,21.41
2018-05-19T17:06:22.885Z,21.43
2018-05-19T17:08:48.659Z,21.45
2018-05-19T17:11:14.424Z,21.45
2018-05-19T17:13:40.199Z,21.52
2018-05-19T17:16:06.075Z,21.59
2018-05-19T17:18:31.854Z,21.63
2018-05-19T17:20:57.616Z,21.62
2018-05-19T17:23:23.391Z,21.57
2018-05-19T17:25:49.249Z,21.47
2018-05-19T17:28:15.035Z,21.51
2018-05-19T17:30:40.915Z,21.46
2018-05-19T17:33:06.692Z,21.45
2018-05-19T17:35:32.465Z,21.42
2018-05-19T17:37:58.245Z,21.41
2018-05-19T17:40:24.003Z,21.40
2018-05-19T17:42:49.759Z,21.33
2018-05-19T17:45:15.540Z,21.31
2018-05-19T17:47:41.315Z,21.30
2018-05-19T17:50:07.080Z,21.30
2018-05-19T17:52:32.860Z,21.18
2018-05-19T17:54:58.612Z,21.26
2018-05-19T17:57:24.407Z,21.38
2018-05-19T17:59:50.148Z,21.43
2018-05-19T18:02:15.935Z,21.49
2018-05-19T18:04:41.702Z,21.49
2018-05-19T18:07:07.767Z,21.39
2018-05-19T18:09:33.539Z,21.28
2018-05-19T18:11:59.340Z,21.26
2018-05-19T18:14:25.123Z,21.17
2018-05-19T18:16:50.921Z,21.14
2018-05-19T18:19:16.694Z,21.15
2018-05-19T18:21:42.463Z,21.18
2018-05-19T18:24:08.224Z,21.18
2018-05-19T18:26:33.980Z,21.13
2018-05-19T18:28:59.740Z,21.12
2018-05-19T18:31:25.495Z,21.03
2018-05-19T18:33:51.301Z,20.96
2018-05-19T18:36:17.055Z,20.86
2018-05-19T18:38:42.811Z,20.78
2018-05-19T18:41:08.568Z,20.64
2018-05-19T18:43:34.412Z,20.49
2018-05-19T18:46:00.174Z,20.35
2018-05-19T18:48:25.956Z,20.25
2018-05-19T18:50:51.703Z,20.14
2018-05-19T18:53:21.335Z,20.01
2018-05-19T18:55:47.090Z,19.94
2018-05-19T18:58:12.868Z,19.82
2018-05-19T19:00:38.640Z,19.74
2018-05-19T19:03:04.451Z,19.66
2018-05-19T19:05:30.210Z,19.55
2018-05-19T19:07:56.001Z,19.46
2018-05-19T19:10:21.795Z,19.37
2018-05-19T19:12:47.570Z,19.31
2018-05-19T19:15:13.335Z,19.25
2018-05-19T19:17:39.158Z,19.16
2018-05-19T19:20:04.914Z,19.15
2018-05-19T19:22:30.702Z,19.08
2018-05-19T19:24:56.780Z,19.03
2018-05-19T19:27:22.565Z,18.96
2018-05-19T19:29:48.325Z,18.86
2018-05-19T19:32:14.180Z,18.77
2018-05-19T19:34:39.899Z,18.71
2018-05-19T19:37:05.647Z,18.60
2018-05-19T19:39:31.403Z,18.51
2018-05-19T19:41:57.172Z,18.43
2018-05-19T19:44:23.011Z,18.34
2018-05-19T19:46:48.783Z,18.24
2018-05-19T19:49:14.612Z,18.17
2018-05-19T19:51:40.380Z,18.09
2018-05-19T19:54:06.170Z,18.01
2018-05-19T19:56:31.915Z,17.96
2018-05-19T19:58:57.701Z,17.89
2018-05-19T20:01:23.457Z,17.84
2018-05-19T20:03:49.236Z,17.78
2018-05-19T20:06:14.996Z,17.74
2018-05-19T20:08:40.786Z,17.67
2018-05-19T20:11:06.548Z,17.62
2018-05-19T20:13:32.324Z,17.56
2018-05-19T20:15:58.088Z,17.51
2018-05-19T20:18:23.847Z,17.46
2018-05-19T20:20:49.595Z,17.41
2018-05-19T20:23:15.362Z,17.35
2018-05-19T20:25:41.250Z,17.29
2018-05-19T20:28:07.003Z,17.22
2018-05-19T20:30:32.757Z,17.16
2018-05-19T20:32:58.605Z,17.13
2018-05-19T20:35:24.374Z,17.04
2018-05-19T20:37:50.135Z,16.99
2018-05-19T20:40:15.947Z,16.92
2018-05-19T20:42:41.767Z,16.89
2018-05-19T20:45:07.497Z,16.83
2018-05-19T20:47:33.271Z,16.78
2018-05-19T20:49:59.136Z,16.73
2018-05-19T20:52:24.915Z,16.68
2018-05-19T20:54:50.688Z,16.65
2018-05-19T20:57:16.520Z,16.63
2018-05-19T20:59:42.295Z,16.60
2018-05-19T21:02:08.054Z,16.58
2018-05-19T21:04:33.841Z,16.55
2018-05-19T21:06:59.653Z,16.53
2018-05-19T21:09:25.468Z,16.52
2018-05-19T21:11:51.408Z,16.49
2018-05-19T21:14:17.244Z,16.51
2018-05-19T21:16:42.997Z,16.53
2018-05-19T21:19:08.869Z,16.54
2018-05-19T21:21:34.574Z,16.54
2018-05-19T21:24:00.354Z,16.53
2018-05-19T21:26:26.102Z,16.51
2018-05-19T21:28:51.886Z,16.50
2018-05-19T21:31:17.632Z,16.48
2018-05-19T21:33:43.487Z,16.47
2018-05-19T21:36:09.243Z,16.46
2018-05-19T21:38:35.076Z,16.45
2018-05-19T21:41:00.864Z,16.44
2018-05-19T21:43:26.699Z,16.42
2018-05-19T21:45:52.589Z,16.36
2018-05-19T21:48:18.356Z,16.37
2018-05-19T21:50:44.167Z,16.34
2018-05-19T21:53:09.944Z,16.28
2018-05-19T21:55:35.708Z,16.24
2018-05-19T21:58:01.528Z,16.18
2018-05-19T22:00:27.315Z,16.15
2018-05-19T22:02:53.063Z,16.09
2018-05-19T22:05:19.048Z,16.08
2018-05-19T22:07:44.823Z,16.06
2018-05-19T22:10:10.600Z,16.04
2018-05-19T22:12:36.360Z,16.00
2018-05-19T22:15:02.278Z,15.97
2018-05-19T22:17:28.048Z,15.96
2018-05-19T22:19:53.814Z,15.95
2018-05-19T22:22:19.626Z,15.94
2018-05-19T22:24:45.356Z,15.92
2018-05-19T22:27:11.159Z,15.91
2018-05-19T22:38:15.424Z,15.76
2018-05-19T22:40:41.216Z,15.77
2018-05-19T22:43:07.042Z,15.75
2018-05-19T22:45:32.798Z,15.72
2018-05-19T22:47:58.551Z,15.69
2018-05-19T22:50:24.349Z,15.67
2018-05-19T22:52:50.104Z,15.64
2018-05-19T22:55:15.924Z,15.62
2018-05-19T22:57:41.678Z,15.59
2018-05-19T23:00:07.484Z,15.59
2018-05-19T23:02:33.230Z,15.56
2018-05-19T23:04:59.295Z,15.53
2018-05-19T23:07:25.039Z,15.51
2018-05-19T23:09:50.788Z,15.49
2018-05-19T23:12:16.558Z,15.46
2018-05-19T23:14:42.428Z,15.43
2018-05-19T23:17:08.295Z,15.39
2018-05-19T23:19:34.048Z,15.34
2018-05-19T23:21:59.836Z,15.30
2018-05-19T23:24:25.613Z,15.27
2018-05-19T23:26:51.553Z,15.25
2018-05-19T23:29:17.318Z,15.22
2018-05-19T23:31:43.071Z,15.20
2018-05-19T23:34:08.814Z,15.20
2018-05-19T23:36:34.596Z,15.18
2018-05-19T23:39:00.363Z,15.19
2018-05-19T23:41:26.123Z,15.19
2018-05-19T23:43:51.928Z,15.21
2018-05-19T23:46:17.688Z,15.19
2018-05-19T23:48:43.455Z,15.20
2018-05-19T23:51:09.259Z,15.16
2018-05-19T23:53:35.072Z,15.13
2018-05-19T23:56:00.851Z,15.09
2018-05-19T23:58:26.651Z,15.04
